GCTSMSLP

Guest
Details From GCTS - Tenerife Sur
To MSLP - El Salvador Intl
Flight Number -
Tags Generated
Created
Modified
Stats Distance 4,108 nm / 7,609 km
Max Altitude 0 ft / 0 m
Waypoints 6
Social Downloads 0
Likes 0
Share VATSIM

Download

Looking for another format? Having issues loading an existing format? Contact us
Advertisement - Login to hide

Notes

Generated

Route

GCTS KNDLL BOTES NBW40 CAT50 MSLP

ID Type Via Altitude Latitude Longitude Leg Dist Tot Dist Heading (true) Name
O GCTS APT - 0 ft / 0 m 28.03920˚ -16.58764˚ - 0 nm - -
KNDLL FIX - 0 ft / 0 m 21.54397˚ -68.26067˚ 2823 nm 2823 nm 274° / 251° -
BOTES FIX - 0 ft / 0 m 20.41706˚ -71.77456˚ 208 nm 3032 nm 252° / 250° -
NBW40 FIX - 0 ft / 0 m 19.25048˚ -75.09606˚ 200 nm 3232 nm 250° / 249° -
CAT50 FIX - 0 ft / 0 m 13.47244˚ -88.95009˚ 869 nm 4102 nm 249° / 245° -
O MSLP APT - 0 ft / 0 m 13.45400˚ -89.04775˚ 5 nm 4108 nm 259° / 259° El Salvador Intl

Altitude Profile

Advertisement - Login to hide

Weather


0- 5 10 15 20 25 30 35+ Temperature / ° C

Clouds and Precipitation
Forecast for 2017-12-14 00:00 UTC. Updated 2 hours ago

Ground ~20,000 ft ~40,000 ft Winds

GCTS

Details ICAO GCTS (TFS)
Name Tenerife Sur
Region Canary Islands
Timezone Atlantic/Canary (UTC+0.0)
Stats Elevation 209 ft / 64 m (AMSL)
Location 28.044475° -16.572488°
Runways 1
Magnetic Variation 5.118° W

METAR

GCTS 132030Z 08023KT 9999 FEW030 18/08 Q1024 NOSIG

Decode

TAF

TAF GCTS 132000Z 1321/1421 06020KT 9999 FEW030 TX24/1414Z TN15/1406Z PROB30 TEMPO 1321/1324 06025G35KT

Decode

Departure Runways

ID Width Length Bearing (true) Bearing (mag) Surface Threshold Offset Overrun Length
08 148 ft / 45 m 10,489 ft / 3,197 m 68.47° 73.59° Asphalt 0 ft / 0 m 0 ft / 0 m
26 148 ft / 45 m 10,489 ft / 3,197 m 248.49° 253.61° Asphalt 0 ft / 0 m 0 ft / 0 m

MSLP

Details ICAO MSLP (SAL)
Name El Salvador Intl
Region El Salvador
Timezone America/El_Salvador (UTC-6.0)
Stats Elevation 101 ft / 31 m (AMSL)
Location 13.445666° -89.051739°
Runways 2
Magnetic Variation 0.452° E

METAR

MSLP 132050Z 02011KT CAVOK 32/14 Q1010 A2984 NOSIG

Decode

TAF

Not found

Destination Runways

ID Width Length Bearing (true) Bearing (mag) Surface Threshold Offset Overrun Length
07 148 ft / 45 m 10,507 ft / 3,202 m 69.86° 69.41° Asphalt 0 ft / 0 m 200 ft / 61 m
18 75 ft / 23 m 2,639 ft / 804 m 180.00° 179.55° Asphalt 0 ft / 0 m 120 ft / 37 m
25 148 ft / 45 m 10,507 ft / 3,202 m 249.87° 249.42° Asphalt 0 ft / 0 m 200 ft / 61 m
36 75 ft / 23 m 2,639 ft / 804 m 0.00° 359.55° Asphalt 0 ft / 0 m 120 ft / 37 m

Approach Navaids

Runway Type Ident Frequency Range Bearing (true) Bearing (mag) Slope Elevation
07 Localiser CUS 110.30 MHz 18 nm / 33 km 69.76° 69.31° - 71 ft / 22 m (AMSL)
07 Glidescope CUS 110.30 MHz 10 nm / 19 km 69.87° 69.41° 2.50° 78 ft / 24 m (AMSL)